createdAt,value
2023-05-10T00:02:25.536Z,5.70
2023-05-10T00:05:14.083Z,5.69
2023-05-10T00:08:02.435Z,5.68
2023-05-10T00:10:51.797Z,5.66
2023-05-10T00:13:40.041Z,5.66
2023-05-10T00:16:30.367Z,5.66
2023-05-10T00:19:18.611Z,5.66
2023-05-10T00:22:07.460Z,5.66
2023-05-10T00:24:56.017Z,5.67
2023-05-10T00:27:44.568Z,5.68
2023-05-10T00:30:32.888Z,5.70
2023-05-10T00:33:21.036Z,5.68
2023-05-10T00:36:09.538Z,5.68
2023-05-10T00:38:47.895Z,5.68
2023-05-10T00:41:36.168Z,5.67
2023-05-10T00:44:24.794Z,5.65
2023-05-10T00:47:13.518Z,5.64
2023-05-10T00:50:02.767Z,5.64
2023-05-10T00:52:51.173Z,5.63
2023-05-10T00:55:40.468Z,5.62
2023-05-10T00:58:31.612Z,5.62
2023-05-10T01:01:20.377Z,5.61
2023-05-10T01:04:11.486Z,5.61
2023-05-10T01:07:00.433Z,5.60
2023-05-10T01:09:48.935Z,5.56
2023-05-10T01:12:39.178Z,5.53
2023-05-10T01:15:28.302Z,5.48
2023-05-10T01:18:19.982Z,5.41
2023-05-10T01:21:15.995Z,5.37
2023-05-10T01:24:11.211Z,5.32
2023-05-10T01:27:18.347Z,5.26
2023-05-10T01:30:23.393Z,5.18
2023-05-10T01:33:11.942Z,5.12
2023-05-10T01:36:04.355Z,5.07
2023-05-10T01:38:53.996Z,5.04
2023-05-10T01:41:46.196Z,5.01
2023-05-10T01:44:40.809Z,4.99
2023-05-10T01:47:52.065Z,4.97
2023-05-10T01:50:32.687Z,4.97
2023-05-10T01:53:22.556Z,4.98
2023-05-10T01:56:13.586Z,4.99
2023-05-10T01:59:12.440Z,4.98
2023-05-10T02:02:03.872Z,4.99
2023-05-10T02:04:54.023Z,4.99
2023-05-10T02:07:43.306Z,4.98
2023-05-10T02:10:15.189Z,4.97
2023-05-10T02:13:04.431Z,4.93
2023-05-10T02:15:54.142Z,4.88
2023-05-10T02:18:42.682Z,4.79
2023-05-10T02:21:31.750Z,4.73
2023-05-10T02:24:20.724Z,4.69
2023-05-10T02:27:10.825Z,4.64
2023-05-10T02:30:02.692Z,4.54
2023-05-10T02:32:36.303Z,4.45
2023-05-10T02:35:26.360Z,4.36
2023-05-10T02:38:15.586Z,4.26
2023-05-10T02:41:05.631Z,4.14
2023-05-10T02:44:07.487Z,4.09
2023-05-10T02:46:56.411Z,4.05
2023-05-10T02:49:44.767Z,4.01
2023-05-10T02:52:39.863Z,4.00
2023-05-10T02:55:32.755Z,3.96
2023-05-10T02:58:13.861Z,3.93
2023-05-10T03:01:13.140Z,3.91
2023-05-10T03:04:01.623Z,3.88
2023-05-10T03:06:49.913Z,3.84
2023-05-10T03:09:38.021Z,3.81
2023-05-10T03:12:40.010Z,3.80
2023-05-10T03:15:35.133Z,3.77
2023-05-10T03:18:22.041Z,3.70
2023-05-10T03:21:12.935Z,3.66
2023-05-10T03:24:00.999Z,3.64
2023-05-10T03:26:51.889Z,3.65
2023-05-10T03:29:40.501Z,3.64
2023-05-10T03:32:35.426Z,3.66
2023-05-10T03:35:24.735Z,3.67
2023-05-10T03:38:12.816Z,3.68
2023-05-10T03:41:03.560Z,3.75
2023-05-10T03:43:44.315Z,3.82
2023-05-10T03:46:32.962Z,3.91
2023-05-10T03:49:22.373Z,3.98
2023-05-10T03:52:10.542Z,4.04
2023-05-10T03:55:13.338Z,4.12
2023-05-10T03:58:01.964Z,4.20
2023-05-10T04:00:50.249Z,4.30
2023-05-10T04:03:39.939Z,4.43
2023-05-10T04:06:30.981Z,4.62
2023-05-10T04:09:19.649Z,5.07
2023-05-10T04:12:10.717Z,5.83
2023-05-10T04:14:59.406Z,6.70
2023-05-10T04:17:47.628Z,7.92
2023-05-10T04:20:36.942Z,9.27
2023-05-10T04:23:26.349Z,10.42
2023-05-10T04:26:15.209Z,11.51
2023-05-10T04:29:03.469Z,12.54
2023-05-10T04:31:53.964Z,13.41
2023-05-10T04:34:44.752Z,13.97
2023-05-10T04:37:33.930Z,13.60
2023-05-10T04:40:22.262Z,13.49
2023-05-10T04:43:13.976Z,13.28
2023-05-10T04:46:10.509Z,13.66
2023-05-10T04:48:58.998Z,14.51
2023-05-10T04:51:49.853Z,15.13
2023-05-10T04:54:36.088Z,15.83
2023-05-10T04:57:28.573Z,16.46
2023-05-10T05:00:17.538Z,17.07
2023-05-10T05:03:07.052Z,17.47
2023-05-10T05:05:55.316Z,17.78
2023-05-10T05:08:43.656Z,18.23
2023-05-10T05:11:31.880Z,18.66
2023-05-10T05:14:21.280Z,19.02
2023-05-10T05:17:09.635Z,19.42
2023-05-10T05:19:57.928Z,20.02
2023-05-10T05:22:46.672Z,20.41
2023-05-10T05:25:37.643Z,20.67
2023-05-10T05:28:27.214Z,20.63
2023-05-10T05:31:15.768Z,20.33
2023-05-10T05:34:05.153Z,19.54
2023-05-10T05:36:54.748Z,18.93
2023-05-10T05:39:43.989Z,19.15
2023-05-10T05:42:55.608Z,19.30
2023-05-10T05:45:45.969Z,19.21
2023-05-10T05:48:37.325Z,19.47
2023-05-10T05:51:25.827Z,19.65
2023-05-10T05:54:14.051Z,19.40
2023-05-10T05:57:02.518Z,18.89
2023-05-10T05:59:52.520Z,18.27
2023-05-10T06:02:40.759Z,17.67
2023-05-10T06:05:29.961Z,17.21
2023-05-10T06:08:14.268Z,16.76
2023-05-10T06:11:06.294Z,16.40
2023-05-10T06:13:47.479Z,16.04
2023-05-10T06:16:36.984Z,15.82
2023-05-10T06:19:26.776Z,15.67
2023-05-10T06:22:15.214Z,15.43
2023-05-10T06:25:03.430Z,15.22
2023-05-10T06:27:57.605Z,14.98
2023-05-10T06:30:54.342Z,14.68
2023-05-10T06:33:42.525Z,14.53
2023-05-10T06:36:37.032Z,14.47
2023-05-10T06:39:26.075Z,14.33
2023-05-10T06:42:14.669Z,14.18
2023-05-10T06:45:03.113Z,14.13
2023-05-10T06:48:55.001Z,14.12
2023-05-10T06:51:02.386Z,14.16
2023-05-10T06:53:50.446Z,14.18
2023-05-10T06:56:42.254Z,14.19
2023-05-10T06:59:30.714Z,14.18
2023-05-10T07:02:19.884Z,14.21
2023-05-10T07:05:09.268Z,14.27
2023-05-10T07:07:58.228Z,14.42
2023-05-10T07:10:47.089Z,14.51
2023-05-10T07:13:39.584Z,14.59
2023-05-10T07:16:28.079Z,14.65
2023-05-10T07:19:15.296Z,14.72
2023-05-10T07:22:03.590Z,14.82
2023-05-10T07:24:51.857Z,14.98
2023-05-10T07:27:39.944Z,15.12
2023-05-10T07:30:28.055Z,15.18
2023-05-10T07:33:17.030Z,15.20
2023-05-10T07:36:07.670Z,15.28
2023-05-10T07:38:57.012Z,15.44
2023-05-10T07:41:45.540Z,15.53
2023-05-10T07:44:35.509Z,15.56
2023-05-10T07:47:24.015Z,15.58
2023-05-10T07:50:12.146Z,15.62
2023-05-10T07:53:00.144Z,15.59
2023-05-10T07:55:52.538Z,15.68
2023-05-10T07:58:41.023Z,15.73
2023-05-10T08:01:31.925Z,15.73
2023-05-10T08:04:20.776Z,15.77
2023-05-10T08:07:09.318Z,15.81
2023-05-10T08:10:00.715Z,15.79
2023-05-10T08:12:49.110Z,15.71
2023-05-10T08:15:37.443Z,15.65
2023-05-10T08:18:25.889Z,15.61
2023-05-10T08:21:14.796Z,15.65
2023-05-10T08:24:05.293Z,15.76
2023-05-10T08:26:55.119Z,15.92
2023-05-10T08:29:50.164Z,16.00
2023-05-10T08:32:39.225Z,16.02
2023-05-10T08:35:27.826Z,16.08
2023-05-10T08:38:16.219Z,16.17
2023-05-10T08:41:06.531Z,16.32
2023-05-10T08:43:55.373Z,16.47
2023-05-10T08:46:46.200Z,16.57
2023-05-10T08:49:37.036Z,16.73
2023-05-10T08:52:27.038Z,16.90
2023-05-10T08:55:16.401Z,17.05
2023-05-10T08:58:05.174Z,17.17
2023-05-10T09:00:54.189Z,17.39
2023-05-10T09:03:42.587Z,17.67
2023-05-10T09:06:31.026Z,18.01
2023-05-10T09:09:20.516Z,18.31
2023-05-10T09:12:12.142Z,18.54
2023-05-10T09:15:02.664Z,18.83
2023-05-10T09:17:52.359Z,18.96
2023-05-10T09:20:40.945Z,19.03
2023-05-10T09:23:32.708Z,19.00
2023-05-10T09:26:24.558Z,19.06
2023-05-10T09:29:13.759Z,19.29
2023-05-10T09:32:07.167Z,19.58
2023-05-10T09:34:55.280Z,19.73
2023-05-10T09:37:44.894Z,19.88
2023-05-10T09:40:33.031Z,20.09
2023-05-10T09:43:21.302Z,20.27
2023-05-10T09:46:10.629Z,20.44
2023-05-10T09:48:59.603Z,20.57
2023-05-10T09:51:48.147Z,20.78
2023-05-10T09:54:37.000Z,21.02
2023-05-10T09:57:26.787Z,21.15
2023-05-10T10:00:18.905Z,21.32
2023-05-10T10:02:47.778Z,21.44
2023-05-10T10:05:36.957Z,21.54
2023-05-10T10:08:25.251Z,21.53
2023-05-10T10:11:13.886Z,21.73
2023-05-10T10:14:02.453Z,21.83
2023-05-10T10:17:05.593Z,21.64
2023-05-10T10:19:56.431Z,21.64
2023-05-10T10:22:44.967Z,21.80
2023-05-10T10:25:34.678Z,21.96
2023-05-10T10:28:26.127Z,21.66
2023-05-10T10:31:22.287Z,21.37
2023-05-10T10:34:13.528Z,21.27
2023-05-10T10:37:06.206Z,21.31
2023-05-10T10:39:56.548Z,21.22
2023-05-10T10:42:50.358Z,21.07
2023-05-10T10:45:41.948Z,20.88
2023-05-10T10:48:33.632Z,20.92
2023-05-10T10:51:23.100Z,20.95
2023-05-10T10:54:12.081Z,21.14
2023-05-10T10:57:12.986Z,21.30
2023-05-10T11:00:21.234Z,21.50
2023-05-10T11:03:10.980Z,21.57
2023-05-10T11:06:04.523Z,21.65
2023-05-10T11:08:53.584Z,21.28
2023-05-10T11:11:51.757Z,21.17
2023-05-10T11:14:40.689Z,21.16
2023-05-10T11:17:31.119Z,21.22
2023-05-10T11:20:23.422Z,21.25
2023-05-10T11:23:13.844Z,21.28
2023-05-10T11:26:22.735Z,21.53
2023-05-10T11:29:11.235Z,21.67
2023-05-10T11:32:00.176Z,21.66
2023-05-10T11:34:49.267Z,21.51
2023-05-10T11:37:39.703Z,21.26
2023-05-10T11:40:27.793Z,21.21
2023-05-10T11:43:16.058Z,21.28
2023-05-10T11:46:04.765Z,21.15
2023-05-10T11:48:54.922Z,20.94
2023-05-10T11:51:43.963Z,20.94
2023-05-10T11:54:32.201Z,21.03
2023-05-10T11:57:21.033Z,21.03
2023-05-10T12:00:10.161Z,21.15
2023-05-10T12:02:38.001Z,21.22
2023-05-10T12:05:28.118Z,21.09
2023-05-10T12:08:20.771Z,21.03
2023-05-10T12:11:11.414Z,21.09
2023-05-10T12:13:59.609Z,20.98
2023-05-10T12:16:48.564Z,20.83
2023-05-10T12:19:39.413Z,20.55
2023-05-10T12:22:27.954Z,20.38
2023-05-10T12:25:16.896Z,20.37
2023-05-10T12:28:01.237Z,20.34
2023-05-10T12:30:40.799Z,20.36
2023-05-10T12:33:39.324Z,20.32
2023-05-10T12:36:27.740Z,20.12
2023-05-10T12:39:16.200Z,20.14
2023-05-10T12:42:05.242Z,20.04
2023-05-10T12:44:56.217Z,19.86
2023-05-10T12:47:44.622Z,19.83
2023-05-10T12:50:33.014Z,19.92
2023-05-10T12:53:21.240Z,20.00
2023-05-10T12:56:09.616Z,20.20
2023-05-10T12:58:57.843Z,20.14
2023-05-10T13:01:47.019Z,19.91
2023-05-10T13:04:39.931Z,19.72
2023-05-10T13:07:32.006Z,19.69
2023-05-10T13:10:20.268Z,19.58
2023-05-10T13:13:10.197Z,19.56
2023-05-10T13:16:00.501Z,19.57
2023-05-10T13:18:50.020Z,19.59
2023-05-10T13:21:38.476Z,19.78
2023-05-10T13:24:29.524Z,19.87
2023-05-10T13:27:17.670Z,19.83
2023-05-10T13:30:07.896Z,19.85
2023-05-10T13:32:57.360Z,19.85
2023-05-10T13:35:48.292Z,19.82
2023-05-10T13:38:36.914Z,19.85
2023-05-10T13:41:26.435Z,19.68
2023-05-10T13:44:15.242Z,19.53
2023-05-10T13:47:04.050Z,19.54
2023-05-10T13:49:52.097Z,19.51
2023-05-10T13:52:40.458Z,19.54
2023-05-10T13:55:30.298Z,19.50
2023-05-10T13:58:19.121Z,19.54
2023-05-10T14:01:10.794Z,19.56
2023-05-10T14:03:59.577Z,19.40
2023-05-10T14:06:48.509Z,19.33
2023-05-10T14:09:37.276Z,19.31
2023-05-10T14:12:25.568Z,19.29
2023-05-10T14:15:16.377Z,19.22
2023-05-10T14:18:05.049Z,19.11
2023-05-10T14:20:53.697Z,19.14
2023-05-10T14:23:42.588Z,19.21
2023-05-10T14:26:32.128Z,19.17
2023-05-10T14:29:20.884Z,19.20
2023-05-10T14:32:09.580Z,19.21
2023-05-10T14:34:57.852Z,19.21
2023-05-10T14:37:45.373Z,19.12
2023-05-10T14:40:35.944Z,19.01
2023-05-10T14:43:24.250Z,18.98
2023-05-10T14:46:12.633Z,18.98
2023-05-10T14:49:02.377Z,18.94
2023-05-10T14:51:50.689Z,18.80
2023-05-10T14:54:39.114Z,18.68
2023-05-10T14:57:30.010Z,18.62
2023-05-10T15:00:19.806Z,18.52
2023-05-10T15:03:09.869Z,18.46
2023-05-10T15:05:58.436Z,18.40
2023-05-10T15:08:47.507Z,18.34
2023-05-10T15:11:37.313Z,18.31
2023-05-10T15:14:25.871Z,18.25
2023-05-10T15:17:14.247Z,18.16
2023-05-10T15:20:03.715Z,18.10
2023-05-10T15:22:52.122Z,18.04
2023-05-10T15:25:40.494Z,17.95
2023-05-10T15:28:29.089Z,17.92
2023-05-10T15:31:17.616Z,17.89
2023-05-10T15:34:06.233Z,17.80
2023-05-10T15:36:54.400Z,17.70
2023-05-10T15:39:42.867Z,17.62
2023-05-10T15:42:32.545Z,17.61
2023-05-10T15:45:22.398Z,17.61
2023-05-10T15:48:13.329Z,17.54
2023-05-10T15:51:04.619Z,17.45
2023-05-10T15:54:05.897Z,17.38
2023-05-10T15:56:56.811Z,17.31
2023-05-10T15:59:45.391Z,17.24
2023-05-10T16:02:25.527Z,17.21
2023-05-10T16:05:14.084Z,17.15
2023-05-10T16:08:02.955Z,17.09
2023-05-10T16:10:51.791Z,17.03
2023-05-10T16:13:40.378Z,16.99
2023-05-10T16:16:28.960Z,16.96
2023-05-10T16:19:18.601Z,16.93
2023-05-10T16:22:07.887Z,16.90
2023-05-10T16:24:56.616Z,16.83
2023-05-10T16:27:45.060Z,16.78
2023-05-10T16:30:36.325Z,16.75
2023-05-10T16:33:24.979Z,16.70
2023-05-10T16:36:13.342Z,16.66
2023-05-10T16:39:04.233Z,16.59
2023-05-10T16:41:54.332Z,16.50
2023-05-10T16:44:42.904Z,16.41
2023-05-10T16:47:32.028Z,16.35
2023-05-10T16:50:20.399Z,16.30
2023-05-10T16:53:09.783Z,16.24
2023-05-10T16:56:00.572Z,16.18
2023-05-10T16:58:50.823Z,16.10
2023-05-10T17:01:40.422Z,16.06
2023-05-10T17:04:29.401Z,16.01
2023-05-10T17:07:18.587Z,15.93
2023-05-10T17:10:08.999Z,15.84
2023-05-10T17:13:00.206Z,15.75
2023-05-10T17:15:50.854Z,15.70
2023-05-10T17:18:41.188Z,15.62
2023-05-10T17:21:29.728Z,15.54
2023-05-10T17:24:17.939Z,15.46
2023-05-10T17:27:06.743Z,15.39
2023-05-10T17:29:47.949Z,15.30
2023-05-10T17:32:38.035Z,15.23
2023-05-10T17:35:26.591Z,15.15
2023-05-10T17:38:08.653Z,15.05
2023-05-10T17:40:57.026Z,14.96
2023-05-10T17:43:46.729Z,14.88
2023-05-10T17:46:37.844Z,14.80
2023-05-10T17:49:17.843Z,14.71
2023-05-10T17:52:08.026Z,14.61
2023-05-10T17:54:58.944Z,14.51
2023-05-10T17:57:47.584Z,14.41
2023-05-10T18:00:37.205Z,14.29
2023-05-10T18:03:25.443Z,14.21
2023-05-10T18:06:14.794Z,14.13
2023-05-10T18:09:03.843Z,14.05
2023-05-10T18:11:52.198Z,13.96
2023-05-10T18:14:32.356Z,13.86
2023-05-10T18:17:36.452Z,13.75
2023-05-10T18:20:17.173Z,13.67
2023-05-10T18:23:00.244Z,13.60
2023-05-10T18:25:48.922Z,13.52
2023-05-10T18:28:37.462Z,13.43
2023-05-10T18:31:27.166Z,13.32
2023-05-10T18:34:08.744Z,13.23
2023-05-10T18:36:57.608Z,13.14
2023-05-10T18:39:47.167Z,13.04
2023-05-10T18:42:36.713Z,12.91
2023-05-10T18:45:25.725Z,12.82
2023-05-10T18:48:18.620Z,12.71
2023-05-10T18:50:58.922Z,12.61
2023-05-10T18:53:47.362Z,12.49
2023-05-10T18:56:15.648Z,12.39
2023-05-10T18:59:04.932Z,12.31
2023-05-10T19:01:55.052Z,12.23
2023-05-10T19:04:46.923Z,12.16
2023-05-10T19:07:36.487Z,12.11
2023-05-10T19:10:26.094Z,12.08
2023-05-10T19:13:14.891Z,12.02
2023-05-10T19:16:16.202Z,11.96
2023-05-10T19:18:51.970Z,11.90
2023-05-10T19:21:40.703Z,11.83
2023-05-10T19:24:37.108Z,11.78
2023-05-10T19:27:19.569Z,11.75
2023-05-10T19:30:08.772Z,11.71
2023-05-10T19:32:59.066Z,11.68
2023-05-10T19:35:49.342Z,11.65
2023-05-10T19:38:37.514Z,11.63
2023-05-10T19:41:25.880Z,11.59
2023-05-10T19:44:14.406Z,11.55
2023-05-10T19:47:04.356Z,11.53
2023-05-10T19:49:53.146Z,11.52
2023-05-10T19:52:41.872Z,11.50
2023-05-10T19:55:26.966Z,11.46
2023-05-10T19:58:15.466Z,11.42
2023-05-10T20:01:24.102Z,11.39
2023-05-10T20:04:12.392Z,11.38
2023-05-10T20:07:00.444Z,11.36
2023-05-10T20:09:48.556Z,11.32
2023-05-10T20:12:37.757Z,11.28
2023-05-10T20:15:24.452Z,11.23
2023-05-10T20:18:13.881Z,11.20
2023-05-10T20:21:02.564Z,11.16
2023-05-10T20:23:51.247Z,11.12
2023-05-10T20:26:40.499Z,11.09
2023-05-10T20:29:28.537Z,11.05
2023-05-10T20:32:16.974Z,11.01
2023-05-10T20:35:06.619Z,10.97
2023-05-10T20:37:55.876Z,10.93
2023-05-10T20:40:45.027Z,10.89
2023-05-10T20:43:33.482Z,10.82
2023-05-10T20:46:22.683Z,10.77
2023-05-10T20:49:12.653Z,10.71
2023-05-10T20:52:03.252Z,10.65
2023-05-10T20:54:51.778Z,10.59
2023-05-10T20:57:40.199Z,10.53
2023-05-10T21:00:28.358Z,10.48
2023-05-10T21:03:20.103Z,10.41
2023-05-10T21:06:07.969Z,10.34
2023-05-10T21:08:56.681Z,10.28
2023-05-10T21:11:44.919Z,10.21
2023-05-10T21:14:33.279Z,10.17
2023-05-10T21:17:22.648Z,10.12
2023-05-10T21:20:12.389Z,10.06
2023-05-10T21:23:00.986Z,9.99
2023-05-10T21:25:49.118Z,9.91
2023-05-10T21:28:39.047Z,9.84
2023-05-10T21:31:28.271Z,9.76
2023-05-10T21:34:17.474Z,9.70
2023-05-10T21:37:06.448Z,9.65
2023-05-10T21:39:54.833Z,9.61
2023-05-10T21:42:40.545Z,9.56
2023-05-10T21:45:21.392Z,9.53
2023-05-10T21:48:09.644Z,9.48
2023-05-10T21:51:07.716Z,9.43
2023-05-10T21:53:55.649Z,9.38
2023-05-10T21:56:44.979Z,9.35
2023-05-10T21:59:26.077Z,9.31
2023-05-10T22:02:14.417Z,9.26
2023-05-10T22:05:06.426Z,9.20
2023-05-10T22:07:54.879Z,9.15
2023-05-10T22:10:37.053Z,9.10
2023-05-10T22:13:26.154Z,9.06
2023-05-10T22:16:06.873Z,9.03
2023-05-10T22:18:55.619Z,9.00
2023-05-10T22:21:44.138Z,8.95
2023-05-10T22:24:32.440Z,8.90
2023-05-10T22:27:04.284Z,8.86
2023-05-10T22:29:52.666Z,8.81
2023-05-10T22:32:45.882Z,8.76
2023-05-10T22:35:34.820Z,8.70
2023-05-10T22:38:23.272Z,8.66
2023-05-10T22:41:11.766Z,8.61
2023-05-10T22:44:01.153Z,8.57
2023-05-10T22:46:49.581Z,8.53
2023-05-10T22:49:38.187Z,8.47
2023-05-10T22:52:28.338Z,8.40
2023-05-10T22:55:16.902Z,8.35
2023-05-10T22:58:05.685Z,8.33
2023-05-10T23:00:55.432Z,8.30
2023-05-10T23:03:43.869Z,8.24
2023-05-10T23:06:27.002Z,8.19
2023-05-10T23:09:15.819Z,8.15
2023-05-10T23:12:04.068Z,8.11
2023-05-10T23:14:52.189Z,8.07
2023-05-10T23:17:40.405Z,8.02
2023-05-10T23:20:28.671Z,7.98
2023-05-10T23:23:17.432Z,7.93
2023-05-10T23:26:08.572Z,7.89
2023-05-10T23:28:56.740Z,7.84
2023-05-10T23:31:48.434Z,7.81
2023-05-10T23:34:36.609Z,7.78
2023-05-10T23:37:24.979Z,7.73
2023-05-10T23:40:13.734Z,7.68
2023-05-10T23:43:02.467Z,7.63
2023-05-10T23:45:54.989Z,7.59
2023-05-10T23:48:46.055Z,7.54
2023-05-10T23:51:34.778Z,7.51
2023-05-10T23:54:23.112Z,7.49
2023-05-10T23:57:11.606Z,7.47
